Civil Air Patrol

Glenn L. Martin Composite Squadron

Welcome to the Glenn L. Martin Composite Squadron Civil Air Patrol

 

We are the official auxiliary of the United States Air Force.

Our 3 main missions are cadet programs, aerospace education and emergency services.

Click each link to learn more about each mission.

 

Here is a short video from National Headquarters about CAP

 

 


 

 
Current METAR for KMTN (Martin State Airport)

KMTN 152145Z 00000KT 10SM SCT043 BKN080 OVC100 20/19 A2997

 

Current TAF for KBWI (Baltimore Washington International)

TAF AMD KBWI 152038Z 1521/1624 21006KT 6SM -SHRA SCT025 BKN090 OVC250 FM160000 22008KT 6SM -SHRA BKN050 OVC100 FM160200 27008KT 6SM -SHRA BKN050 OVC100 FM160400 32015G25KT P6SM SCT050 BKN100 FM161100 32008G16KT P6SM SCT100 FM161700 32008KT P6SM SCT100 FM162200 25005KT P6SM SCT100